Terminal Aerodrome Forecast
Issued by NWS

Home | Current Version | Previous Version | Text Only | Print | Product List | Glossary On
Versions: 1 2 3 4 5 6 7 8 9 10 11 12 13 14 15 16 17 18 19
514
FTUS42 KTAE 191343 AAA
TAFECP
TAF AMD
KECP 191343Z 1914/2012 00000KT P6SM SCT001
      TEMPO 1914/1915 BKN002
     FM191500 35005KT P6SM FEW015 SCT250=

USA.gov is the U.S. government's official web portal to all federal, state and local government web resources and services.